Pittsburgh, Pennsylvania
Traffic Map
Current Weather Conditions
Pittsburgh, Pennsylvania
Overcast
Overcast
49°
Feels Like: 47°
Wind Chill: 47° Ceiling: 4500
Heat Index: 49° Visibility: 10mi
Dew Point: 34° Wind: 6mph
Humidity: 56% Direction: 340° (NNW)
Pressure: 30.08in Gusts: 0mph
Raw Report DataKAGC 301653Z 34005KT 10SM OVC045 09/01 A3008 RMK AO2 SLP195 T00940011
Traffic Incident Summary
Active as of:
Severity:
Category:
InformationThere was an issue retrieving the traffic information for this location. Please try a different location or try again shortly.
Advertisements
Track Severe Weather on mobile